Volgodonsk, Russia
Current Conditions -  °F | °C
As of 7:30 PM on Saturday 25 Oct 2014 (Local Time) from URRR Reporting Station
Clear Clear  
Wind Chill: 18°   Ceiling: Unl
Heat Index: 28°   Visibility: 6mi
Dew Point: 14°   Wind: 13mph
Humidity: 55%   Direction: 70°ENE
Pressure: 30.53"   Gusts: NA
Location:  47.51°N, 42.15°E
Report Text: URRR 251630Z 07006MPS CAVOK M02/M10 Q1034 04CLRD70 NOSIG
Loading
Personal Weather Stations






























Interactive Weather Map
Tropical Storm Tracking
New forecast layout! Learn more

10-Day Weather Forecast

Advertisements
Track Severe Weather on mobile